LPMT

Montijo Airport

Montijo, Portugal
TAF LPMT 202304Z 2100/2124 08010KT 9999 SCT030 TEMPO 2103/2113 09015G25KT 4000 RA SCT020 FEW030CB BKN040 PROB40 TEMPO 2104/2124 2000 +TSRA BKN020 SCT030CB BECMG 2108/2110 12015G25KT PROB40 TEMPO 2109/2114 13020G35KT TEMPO 2113/2124 6000 SHRA SCT020 FEW030CB BKN040 BECMG 2114/2116 VRB02KT
Issued Valid From Valid To
Apr-20 @ 23:04 UTC
(5 hours ago)
Apr-21 @ 00:00 UTC
(4 hours ago)
Apr-22 @ 00:00 UTC
(in 20 hours)
Apr-21 @ 00:00 to Apr-21 @ 08:00
TAF LPMT 202304Z 2100/2124 08010KT 9999 SCT030
Wind Visibility Clouds
80° at 10 knots 10,000+ meters
  • Scattered at 3,000' AGL
Temporary Apr-21 @ 03:00 to Apr-21 @ 13:00
TEMPO 2103/2113 09015G25KT 4000 RA SCT020 FEW030CB BKN040
Wind Visibility Clouds Conditions
90° at 15 knots
 Gusting to 25 knots
4,007 meters
  • Scattered at 2,000' AGL
  • Few at 3,000' AGL
  • Broken at 4,000' AGL
  • Rain
Temporary  (Probability 40%) Apr-21 @ 04:00 to Apr-22 @ 00:00
PROB40 TEMPO 2104/2124 2000 +TSRA BKN020 SCT030CB
Visibility Clouds Conditions
1,996 meters
  • Broken at 2,000' AGL
  • Scattered at 3,000' AGL
  • Heavy Thunderstorm
  • Heavy Rain
Becoming Apr-21 @ 08:00 to Apr-21 @ 14:00
BECMG 2108/2110 12015G25KT
Wind Visibility Clouds
120° at 15 knots
 Gusting to 25 knots
10,000+ meters
  • Scattered at 3,000' AGL
Temporary  (Probability 40%) Apr-21 @ 09:00 to Apr-21 @ 14:00
PROB40 TEMPO 2109/2114 13020G35KT
Wind
130° at 20 knots
 Gusting to 35 knots
Temporary Apr-21 @ 13:00 to Apr-22 @ 00:00
TEMPO 2113/2124 6000 SHRA SCT020 FEW030CB BKN040
Visibility Clouds Conditions
6,003 meters
  • Scattered at 2,000' AGL
  • Few at 3,000' AGL
  • Broken at 4,000' AGL
  • Rain
Becoming Apr-21 @ 14:00 to Apr-22 @ 00:00
BECMG 2114/2116 VRB02KT
Wind Visibility Clouds
Variable at 2 knots 10,000+ meters
  • Scattered at 3,000' AGL
TAF LPMT 202304Z 2100/2124 08010KT 9999 SCT030 TEMPO 2103/2113 09015G25KT 4000 RA SCT020 FEW030CB BKN040 PROB40 TEMPO 2104/2124 2000 +TSRA BKN020 SCT030CB BECMG 2108/2110 12015G25KT PROB40 TEMPO 2109/2114 13020G35KT TEMPO 2113/2124 6000 SHRA SCT020 FEW030CB BKN040 BECMG 2114/2116 VRB02KT
Issued Apr-20 @ 23:04 UTC
(5 hours ago)
Valid From Apr-21 @ 00:00 UTC
(4 hours ago)
Valid To Apr-22 @ 00:00 UTC
(in 20 hours)
Apr-21 @ 00:00 - Apr-21 @ 08:00
Wind Visibility
80° at 10 knots 10,000+ meters
Clouds
  • Scattered at 3,000' AGL
Temporary Apr-21 @ 03:00 - Apr-21 @ 13:00
Wind Visibility
90° at 15 knots
 Gusting to 25 knots
4,007 meters
Clouds
  • Scattered at 2,000' AGL
  • Few at 3,000' AGL
  • Broken at 4,000' AGL
Conditions
  • Rain
Probability 40% Temporary Apr-21 @ 04:00 - Apr-22 @ 00:00
Clouds
  • Broken at 2,000' AGL
  • Scattered at 3,000' AGL
Conditions
  • Heavy Thunderstorm
  • Heavy Rain
Becoming Apr-21 @ 08:00 - Apr-21 @ 14:00
Wind Visibility
120° at 15 knots
 Gusting to 25 knots
10,000+ meters
Clouds
  • Scattered at 3,000' AGL
Probability 40% Temporary Apr-21 @ 09:00 - Apr-21 @ 14:00
Wind
130° at 20 knots
 Gusting to 35 knots
Temporary Apr-21 @ 13:00 - Apr-22 @ 00:00
Clouds
  • Scattered at 2,000' AGL
  • Few at 3,000' AGL
  • Broken at 4,000' AGL
Conditions
  • Rain
Becoming Apr-21 @ 14:00 - Apr-22 @ 00:00
Wind Visibility
Variable at 2 knots 10,000+ meters
Clouds
  • Scattered at 3,000' AGL